Matlacha, Florida
Current Conditions -  °F | °C
As of 4:53 PM on Saturday 25 Oct 2014 (Local Time) from KFMY Reporting Station
Clear Clear  
Wind Chill: 28°   Ceiling: Unl
Heat Index: 28°   Visibility: 10mi
Dew Point: 13°   Wind: 9mph
Humidity: 39%   Direction: 350°N
Pressure: 29.9"   Gusts: NA
Location:  26.6904°N, 82.0304°W
Report Text: KFMY 252053Z 35008KT 10SM CLR 28/13 A2990 RMK AO2 SLP127 T02780128 56012
Loading
Personal Weather Stations






























Interactive Weather Map
Tropical Storm Tracking
New forecast layout! Learn more

10-Day Weather Forecast

Advertisements
Track Severe Weather on mobile